sensor_id;sensor_type;location;lat;lon;timestamp;temperature;humidity
64599;SHT31;51008;51.504;11.548;2022-11-22T00:03:28;-1.39;99.99
64599;SHT31;51008;51.504;11.548;2022-11-22T00:08:29;-1.45;99.99
64599;SHT31;51008;51.504;11.548;2022-11-22T00:13:30;-1.35;99.99
64599;SHT31;51008;51.504;11.548;2022-11-22T00:18:31;-1.47;99.99
64599;SHT31;51008;51.504;11.548;2022-11-22T00:23:32;-1.49;99.99
64599;SHT31;51008;51.504;11.548;2022-11-22T00:28:33;-1.49;99.99
64599;SHT31;51008;51.504;11.548;2022-11-22T00:33:34;-1.43;99.99
64599;SHT31;51008;51.504;11.548;2022-11-22T00:38:35;-1.46;99.99
64599;SHT31;51008;51.504;11.548;2022-11-22T00:43:36;-1.52;99.99
64599;SHT31;51008;51.504;11.548;2022-11-22T00:48:37;-1.53;99.99
64599;SHT31;51008;51.504;11.548;2022-11-22T00:53:38;-1.43;99.99
64599;SHT31;51008;51.504;11.548;2022-11-22T00:58:39;-1.52;99.99
64599;SHT31;51008;51.504;11.548;2022-11-22T01:03:40;-1.52;99.99
64599;SHT31;51008;51.504;11.548;2022-11-22T01:08:41;-1.46;99.99
64599;SHT31;51008;51.504;11.548;2022-11-22T01:13:43;-1.50;99.99
64599;SHT31;51008;51.504;11.548;2022-11-22T01:18:44;-1.50;99.99
64599;SHT31;51008;51.504;11.548;2022-11-22T01:23:45;-1.50;99.99
64599;SHT31;51008;51.504;11.548;2022-11-22T01:28:46;-1.47;99.99
64599;SHT31;51008;51.504;11.548;2022-11-22T01:33:47;-1.55;99.99
64599;SHT31;51008;51.504;11.548;2022-11-22T01:38:48;-1.55;99.99
64599;SHT31;51008;51.504;11.548;2022-11-22T01:43:49;-1.52;99.99
64599;SHT31;51008;51.504;11.548;2022-11-22T01:49:03;-1.56;99.99
64599;SHT31;51008;51.504;11.548;2022-11-22T01:54:08;-1.53;99.99
64599;SHT31;51008;51.504;11.548;2022-11-22T01:59:13;-1.45;99.99
64599;SHT31;51008;51.504;11.548;2022-11-22T02:04:16;-1.43;99.99
64599;SHT31;51008;51.504;11.548;2022-11-22T02:09:17;-1.55;99.99
64599;SHT31;51008;51.504;11.548;2022-11-22T02:14:21;-1.53;99.99
64599;SHT31;51008;51.504;11.548;2022-11-22T02:24:50;-1.40;99.99
64599;SHT31;51008;51.504;11.548;2022-11-22T02:29:53;-1.53;99.99
64599;SHT31;51008;51.504;11.548;2022-11-22T02:34:54;-1.56;99.99
64599;SHT31;51008;51.504;11.548;2022-11-22T02:39:58;-1.55;99.99
64599;SHT31;51008;51.504;11.548;2022-11-22T02:45:01;-1.43;99.99
64599;SHT31;51008;51.504;11.548;2022-11-22T02:50:02;-1.49;99.99
64599;SHT31;51008;51.504;11.548;2022-11-22T02:55:06;-1.47;99.99
64599;SHT31;51008;51.504;11.548;2022-11-22T03:00:08;-1.47;99.99
64599;SHT31;51008;51.504;11.548;2022-11-22T03:05:09;-1.46;99.99
64599;SHT31;51008;51.504;11.548;2022-11-22T03:10:10;-1.47;99.99
64599;SHT31;51008;51.504;11.548;2022-11-22T03:15:11;-1.49;99.99
64599;SHT31;51008;51.504;11.548;2022-11-22T03:20:12;-1.42;99.99
64599;SHT31;51008;51.504;11.548;2022-11-22T03:25:13;-1.42;99.99
64599;SHT31;51008;51.504;11.548;2022-11-22T03:30:14;-1.34;99.99
64599;SHT31;51008;51.504;11.548;2022-11-22T03:35:16;-1.36;99.99
64599;SHT31;51008;51.504;11.548;2022-11-22T03:40:17;-1.31;99.99
64599;SHT31;51008;51.504;11.548;2022-11-22T03:45:18;-1.31;99.99
64599;SHT31;51008;51.504;11.548;2022-11-22T03:50:19;-1.35;99.99
64599;SHT31;51008;51.504;11.548;2022-11-22T03:55:20;-1.40;99.99
64599;SHT31;51008;51.504;11.548;2022-11-22T04:00:21;-1.47;99.99
64599;SHT31;51008;51.504;11.548;2022-11-22T04:05:24;-1.45;99.99
64599;SHT31;51008;51.504;11.548;2022-11-22T04:10:25;-1.47;99.99
64599;SHT31;51008;51.504;11.548;2022-11-22T04:15:27;-1.43;99.99
64599;SHT31;51008;51.504;11.548;2022-11-22T04:20:30;-1.34;99.99
64599;SHT31;51008;51.504;11.548;2022-11-22T04:25:33;-1.42;99.99
64599;SHT31;51008;51.504;11.548;2022-11-22T04:30:34;-1.32;99.99
64599;SHT31;51008;51.504;11.548;2022-11-22T04:35:36;-1.25;99.99
64599;SHT31;51008;51.504;11.548;2022-11-22T04:40:38;-1.25;99.99
64599;SHT31;51008;51.504;11.548;2022-11-22T04:45:39;-1.29;99.99
64599;SHT31;51008;51.504;11.548;2022-11-22T04:50:41;-1.35;99.99
64599;SHT31;51008;51.504;11.548;2022-11-22T04:55:44;-1.38;99.99
64599;SHT31;51008;51.504;11.548;2022-11-22T05:00:46;-1.40;99.99
64599;SHT31;51008;51.504;11.548;2022-11-22T05:05:47;-1.34;99.99
64599;SHT31;51008;51.504;11.548;2022-11-22T05:10:48;-1.38;99.99
64599;SHT31;51008;51.504;11.548;2022-11-22T05:15:49;-1.24;99.99
64599;SHT31;51008;51.504;11.548;2022-11-22T05:20:51;-1.19;99.99
64599;SHT31;51008;51.504;11.548;2022-11-22T05:25:52;-1.22;99.99
64599;SHT31;51008;51.504;11.548;2022-11-22T05:30:56;-1.18;99.99
64599;SHT31;51008;51.504;11.548;2022-11-22T05:35:57;-1.18;99.99
64599;SHT31;51008;51.504;11.548;2022-11-22T05:40:58;-1.18;99.99
64599;SHT31;51008;51.504;11.548;2022-11-22T05:46:17;-1.08;99.99
64599;SHT31;51008;51.504;11.548;2022-11-22T05:51:21;-1.05;99.99
64599;SHT31;51008;51.504;11.548;2022-11-22T05:56:23;-1.05;99.99
64599;SHT31;51008;51.504;11.548;2022-11-22T06:01:24;-1.02;99.99
64599;SHT31;51008;51.504;11.548;2022-11-22T06:06:25;-0.97;99.99
64599;SHT31;51008;51.504;11.548;2022-11-22T06:11:27;-1.04;99.99
64599;SHT31;51008;51.504;11.548;2022-11-22T06:16:28;-1.04;99.99
64599;SHT31;51008;51.504;11.548;2022-11-22T06:21:29;-1.05;99.99
64599;SHT31;51008;51.504;11.548;2022-11-22T06:26:30;-1.05;99.99
64599;SHT31;51008;51.504;11.548;2022-11-22T06:31:31;-1.05;99.99
64599;SHT31;51008;51.504;11.548;2022-11-22T06:36:33;-1.05;99.99
64599;SHT31;51008;51.504;11.548;2022-11-22T06:41:35;-1.09;99.99
64599;SHT31;51008;51.504;11.548;2022-11-22T06:46:36;-1.13;99.99
64599;SHT31;51008;51.504;11.548;2022-11-22T06:51:37;-1.08;99.99
64599;SHT31;51008;51.504;11.548;2022-11-22T06:56:40;-1.02;99.99
64599;SHT31;51008;51.504;11.548;2022-11-22T07:01:41;-0.97;99.99
64599;SHT31;51008;51.504;11.548;2022-11-22T07:06:42;-0.91;99.99
64599;SHT31;51008;51.504;11.548;2022-11-22T07:11:43;-0.93;99.99
64599;SHT31;51008;51.504;11.548;2022-11-22T07:16:44;-0.87;99.99
64599;SHT31;51008;51.504;11.548;2022-11-22T07:21:45;-0.80;99.99
64599;SHT31;51008;51.504;11.548;2022-11-22T07:26:46;-0.69;99.99
64599;SHT31;51008;51.504;11.548;2022-11-22T07:31:47;-0.60;99.99
64599;SHT31;51008;51.504;11.548;2022-11-22T07:36:48;-0.49;99.99
64599;SHT31;51008;51.504;11.548;2022-11-22T07:41:49;-0.38;99.99
64599;SHT31;51008;51.504;11.548;2022-11-22T07:46:50;-0.28;99.99
64599;SHT31;51008;51.504;11.548;2022-11-22T07:51:51;-0.26;99.99
64599;SHT31;51008;51.504;11.548;2022-11-22T07:56:52;-0.17;99.99
64599;SHT31;51008;51.504;11.548;2022-11-22T08:01:53;-0.07;99.99
64599;SHT31;51008;51.504;11.548;2022-11-22T08:06:54;0.00;99.99
64599;SHT31;51008;51.504;11.548;2022-11-22T08:11:55;0.04;99.99
64599;SHT31;51008;51.504;11.548;2022-11-22T08:16:56;0.15;99.99
64599;SHT31;51008;51.504;11.548;2022-11-22T08:21:57;0.20;99.99
64599;SHT31;51008;51.504;11.548;2022-11-22T08:26:58;0.11;99.99
64599;SHT31;51008;51.504;11.548;2022-11-22T08:31:59;0.20;99.99
64599;SHT31;51008;51.504;11.548;2022-11-22T08:37:00;0.28;99.99
64599;SHT31;51008;51.504;11.548;2022-11-22T08:42:01;0.40;99.99
64599;SHT31;51008;51.504;11.548;2022-11-22T08:47:02;0.45;99.96
64599;SHT31;51008;51.504;11.548;2022-11-22T08:52:03;0.51;99.87
64599;SHT31;51008;51.504;11.548;2022-11-22T08:57:04;0.55;99.99
64599;SHT31;51008;51.504;11.548;2022-11-22T09:02:05;0.61;99.99
64599;SHT31;51008;51.504;11.548;2022-11-22T09:07:06;0.65;99.99
64599;SHT31;51008;51.504;11.548;2022-11-22T09:12:07;0.65;99.99
64599;SHT31;51008;51.504;11.548;2022-11-22T09:17:08;0.80;99.99
64599;SHT31;51008;51.504;11.548;2022-11-22T09:22:10;0.97;99.99
64599;SHT31;51008;51.504;11.548;2022-11-22T09:27:11;1.03;99.74
64599;SHT31;51008;51.504;11.548;2022-11-22T09:32:12;1.16;99.51
64599;SHT31;51008;51.504;11.548;2022-11-22T09:37:13;1.28;99.16
64599;SHT31;51008;51.504;11.548;2022-11-22T09:48:03;1.46;98.20
64599;SHT31;51008;51.504;11.548;2022-11-22T09:53:48;1.54;97.99
64599;SHT31;51008;51.504;11.548;2022-11-22T09:59:12;1.58;97.53
64599;SHT31;51008;51.504;11.548;2022-11-22T10:04:18;1.74;97.20
64599;SHT31;51008;51.504;11.548;2022-11-22T10:09:59;1.86;96.91
64599;SHT31;51008;51.504;11.548;2022-11-22T10:20:15;1.93;96.40
64599;SHT31;51008;51.504;11.548;2022-11-22T10:25:21;2.07;96.23
64599;SHT31;51008;51.504;11.548;2022-11-22T10:30:24;2.18;95.94
64599;SHT31;51008;51.504;11.548;2022-11-22T11:07:28;2.29;95.07
64599;SHT31;51008;51.504;11.548;2022-11-22T11:12:38;2.21;95.18
64599;SHT31;51008;51.504;11.548;2022-11-22T11:17:41;2.14;94.94
64599;SHT31;51008;51.504;11.548;2022-11-22T11:22:45;2.21;95.14
64599;SHT31;51008;51.504;11.548;2022-11-22T11:27:46;2.27;95.15
64599;SHT31;51008;51.504;11.548;2022-11-22T11:32:55;2.50;94.47
64599;SHT31;51008;51.504;11.548;2022-11-22T11:37:56;2.50;94.63
64599;SHT31;51008;51.504;11.548;2022-11-22T11:43:20;2.69;94.60
64599;SHT31;51008;51.504;11.548;2022-11-22T11:53:25;3.24;93.39
64599;SHT31;51008;51.504;11.548;2022-11-22T11:58:26;3.56;93.60
64599;SHT31;51008;51.504;11.548;2022-11-22T12:03:27;3.76;92.53
64599;SHT31;51008;51.504;11.548;2022-11-22T12:08:30;3.88;91.16
64599;SHT31;51008;51.504;11.548;2022-11-22T12:13:41;3.83;90.73
64599;SHT31;51008;51.504;11.548;2022-11-22T12:18:51;3.73;92.10
64599;SHT31;51008;51.504;11.548;2022-11-22T12:29:09;4.23;91.75
64599;SHT31;51008;51.504;11.548;2022-11-22T12:34:19;4.22;91.47
64599;SHT31;51008;51.504;11.548;2022-11-22T12:39:27;4.23;91.33
64599;SHT31;51008;51.504;11.548;2022-11-22T12:44:33;4.23;91.88
64599;SHT31;51008;51.504;11.548;2022-11-22T12:49:47;4.33;91.51
64599;SHT31;51008;51.504;11.548;2022-11-22T12:55:12;4.42;91.69
64599;SHT31;51008;51.504;11.548;2022-11-22T13:00:25;4.38;91.31
64599;SHT31;51008;51.504;11.548;2022-11-22T13:10:54;4.38;91.87
64599;SHT31;51008;51.504;11.548;2022-11-22T13:15:58;4.42;91.95
64599;SHT31;51008;51.504;11.548;2022-11-22T13:21:08;4.49;91.75
64599;SHT31;51008;51.504;11.548;2022-11-22T13:26:17;4.47;91.72
64599;SHT31;51008;51.504;11.548;2022-11-22T13:31:19;4.43;92.04
64599;SHT31;51008;51.504;11.548;2022-11-22T13:41:36;4.40;92.21
64599;SHT31;51008;51.504;11.548;2022-11-22T13:46:55;4.39;92.03
64599;SHT31;51008;51.504;11.548;2022-11-22T13:51:58;4.30;92.46
64599;SHT31;51008;51.504;11.548;2022-11-22T13:57:01;4.19;92.89
64599;SHT31;51008;51.504;11.548;2022-11-22T14:02:20;3.99;93.09
64599;SHT31;51008;51.504;11.548;2022-11-22T14:07:34;3.94;92.96
64599;SHT31;51008;51.504;11.548;2022-11-22T14:18:17;3.80;93.01
64599;SHT31;51008;51.504;11.548;2022-11-22T14:34:21;3.59;93.06
64599;SHT31;51008;51.504;11.548;2022-11-22T14:39:59;3.46;93.23
64599;SHT31;51008;51.504;11.548;2022-11-22T14:45:22;3.29;93.25
64599;SHT31;51008;51.504;11.548;2022-11-22T14:55:33;2.87;93.02
64599;SHT31;51008;51.504;11.548;2022-11-22T15:16:26;2.14;94.50
64599;SHT31;51008;51.504;11.548;2022-11-22T15:21:33;2.07;94.82
64599;SHT31;51008;51.504;11.548;2022-11-22T15:26:34;1.97;94.94
64599;SHT31;51008;51.504;11.548;2022-11-22T15:31:35;1.96;95.53
64599;SHT31;51008;51.504;11.548;2022-11-22T15:41:48;1.72;95.48
64599;SHT31;51008;51.504;11.548;2022-11-22T15:46:50;1.65;95.80
64599;SHT31;51008;51.504;11.548;2022-11-22T15:51:56;1.58;96.00
64599;SHT31;51008;51.504;11.548;2022-11-22T15:57:22;1.39;96.15
64599;SHT31;51008;51.504;11.548;2022-11-22T16:02:28;1.28;96.34
64599;SHT31;51008;51.504;11.548;2022-11-22T16:07:34;1.28;96.99
64599;SHT31;51008;51.504;11.548;2022-11-22T16:12:37;1.41;98.01
64599;SHT31;51008;51.504;11.548;2022-11-22T16:17:48;1.56;98.85
64599;SHT31;51008;51.504;11.548;2022-11-22T16:23:23;1.66;99.41
64599;SHT31;51008;51.504;11.548;2022-11-22T16:28:35;1.67;98.73
64599;SHT31;51008;51.504;11.548;2022-11-22T16:33:37;1.82;99.49
64599;SHT31;51008;51.504;11.548;2022-11-22T16:38:38;1.90;99.71
64599;SHT31;51008;51.504;11.548;2022-11-22T16:43:39;1.93;99.49
64599;SHT31;51008;51.504;11.548;2022-11-22T16:48:42;2.00;99.67
64599;SHT31;51008;51.504;11.548;2022-11-22T16:53:46;2.27;99.69
64599;SHT31;51008;51.504;11.548;2022-11-22T16:58:49;2.29;99.65
64599;SHT31;51008;51.504;11.548;2022-11-22T17:03:52;2.38;99.69
64599;SHT31;51008;51.504;11.548;2022-11-22T17:08:55;2.59;99.65
64599;SHT31;51008;51.504;11.548;2022-11-22T17:13:58;2.46;99.09
64599;SHT31;51008;51.504;11.548;2022-11-22T17:18:59;2.44;98.82
64599;SHT31;51008;51.504;11.548;2022-11-22T17:24:02;2.44;99.02
64599;SHT31;51008;51.504;11.548;2022-11-22T17:29:03;2.48;98.80
64599;SHT31;51008;51.504;11.548;2022-11-22T17:34:04;2.72;98.77
64599;SHT31;51008;51.504;11.548;2022-11-22T17:39:09;2.94;98.38
64599;SHT31;51008;51.504;11.548;2022-11-22T17:44:14;3.32;97.26
64599;SHT31;51008;51.504;11.548;2022-11-22T17:49:15;3.69;96.19
64599;SHT31;51008;51.504;11.548;2022-11-22T17:54:16;3.80;95.50
64599;SHT31;51008;51.504;11.548;2022-11-22T17:59:17;3.77;95.16
64599;SHT31;51008;51.504;11.548;2022-11-22T18:04:18;3.77;94.85
64599;SHT31;51008;51.504;11.548;2022-11-22T18:09:19;3.77;94.88
64599;SHT31;51008;51.504;11.548;2022-11-22T18:14:20;3.69;94.51
64599;SHT31;51008;51.504;11.548;2022-11-22T18:19:22;3.64;94.81
64599;SHT31;51008;51.504;11.548;2022-11-22T18:24:23;3.70;94.73
64599;SHT31;51008;51.504;11.548;2022-11-22T18:29:24;3.73;94.33
64599;SHT31;51008;51.504;11.548;2022-11-22T18:34:25;3.67;94.58
64599;SHT31;51008;51.504;11.548;2022-11-22T18:39:29;3.99;93.62
64599;SHT31;51008;51.504;11.548;2022-11-22T18:44:30;4.09;92.93
64599;SHT31;51008;51.504;11.548;2022-11-22T18:49:31;4.22;92.47
64599;SHT31;51008;51.504;11.548;2022-11-22T18:54:32;4.22;92.54
64599;SHT31;51008;51.504;11.548;2022-11-22T18:59:33;4.29;92.22
64599;SHT31;51008;51.504;11.548;2022-11-22T19:04:34;4.25;92.28
64599;SHT31;51008;51.504;11.548;2022-11-22T19:09:35;4.15;92.53
64599;SHT31;51008;51.504;11.548;2022-11-22T19:14:36;4.15;92.35
64599;SHT31;51008;51.504;11.548;2022-11-22T19:19:38;4.21;92.09
64599;SHT31;51008;51.504;11.548;2022-11-22T19:24:39;4.22;91.92
64599;SHT31;51008;51.504;11.548;2022-11-22T19:29:40;4.25;91.49
64599;SHT31;51008;51.504;11.548;2022-11-22T19:34:41;4.30;91.25
64599;SHT31;51008;51.504;11.548;2022-11-22T19:39:42;4.29;91.43
64599;SHT31;51008;51.504;11.548;2022-11-22T19:44:43;4.43;90.74
64599;SHT31;51008;51.504;11.548;2022-11-22T19:49:44;4.36;91.09
64599;SHT31;51008;51.504;11.548;2022-11-22T19:54:45;4.29;91.14
64599;SHT31;51008;51.504;11.548;2022-11-22T19:59:46;4.42;90.27
64599;SHT31;51008;51.504;11.548;2022-11-22T20:04:47;4.28;90.57
64599;SHT31;51008;51.504;11.548;2022-11-22T20:09:48;4.33;90.32
64599;SHT31;51008;51.504;11.548;2022-11-22T20:14:49;4.33;90.55
64599;SHT31;51008;51.504;11.548;2022-11-22T20:19:50;4.36;90.40
64599;SHT31;51008;51.504;11.548;2022-11-22T20:24:51;4.45;90.00
64599;SHT31;51008;51.504;11.548;2022-11-22T20:29:52;4.61;89.27
64599;SHT31;51008;51.504;11.548;2022-11-22T20:34:53;4.57;89.70
64599;SHT31;51008;51.504;11.548;2022-11-22T20:39:54;4.52;89.81
64599;SHT31;51008;51.504;11.548;2022-11-22T20:44:55;4.58;89.46
64599;SHT31;51008;51.504;11.548;2022-11-22T20:49:56;4.43;90.21
64599;SHT31;51008;51.504;11.548;2022-11-22T20:54:57;4.29;90.36
64599;SHT31;51008;51.504;11.548;2022-11-22T20:59:58;4.26;90.38
64599;SHT31;51008;51.504;11.548;2022-11-22T21:04:59;4.21;90.61
64599;SHT31;51008;51.504;11.548;2022-11-22T21:10:00;4.15;90.67
64599;SHT31;51008;51.504;11.548;2022-11-22T21:15:01;4.19;90.49
64599;SHT31;51008;51.504;11.548;2022-11-22T21:20:02;4.57;89.74
64599;SHT31;51008;51.504;11.548;2022-11-22T21:25:04;4.68;89.41
64599;SHT31;51008;51.504;11.548;2022-11-22T21:30:05;4.80;88.81
64599;SHT31;51008;51.504;11.548;2022-11-22T21:35:07;4.84;88.98
64599;SHT31;51008;51.504;11.548;2022-11-22T21:40:09;4.92;88.71
64599;SHT31;51008;51.504;11.548;2022-11-22T21:45:10;4.89;88.70
64599;SHT31;51008;51.504;11.548;2022-11-22T21:50:11;4.83;89.11
64599;SHT31;51008;51.504;11.548;2022-11-22T21:55:12;4.85;89.05
64599;SHT31;51008;51.504;11.548;2022-11-22T22:00:14;4.73;89.45
64599;SHT31;51008;51.504;11.548;2022-11-22T22:05:15;4.74;89.46
64599;SHT31;51008;51.504;11.548;2022-11-22T22:10:16;4.57;89.72
64599;SHT31;51008;51.504;11.548;2022-11-22T22:15:17;4.56;90.55
64599;SHT31;51008;51.504;11.548;2022-11-22T22:20:19;4.66;90.65
64599;SHT31;51008;51.504;11.548;2022-11-22T22:25:20;4.89;89.75
64599;SHT31;51008;51.504;11.548;2022-11-22T22:30:21;5.04;89.17
64599;SHT31;51008;51.504;11.548;2022-11-22T22:35:22;5.22;88.69
64599;SHT31;51008;51.504;11.548;2022-11-22T22:40:23;5.26;88.64
64599;SHT31;51008;51.504;11.548;2022-11-22T22:45:24;5.16;88.82
64599;SHT31;51008;51.504;11.548;2022-11-22T22:50:25;5.15;88.81
64599;SHT31;51008;51.504;11.548;2022-11-22T22:55:26;5.13;88.61
64599;SHT31;51008;51.504;11.548;2022-11-22T23:00:27;5.13;88.85
64599;SHT31;51008;51.504;11.548;2022-11-22T23:05:28;5.15;88.95
64599;SHT31;51008;51.504;11.548;2022-11-22T23:10:29;5.13;89.01
64599;SHT31;51008;51.504;11.548;2022-11-22T23:15:30;5.26;88.56
64599;SHT31;51008;51.504;11.548;2022-11-22T23:20:31;5.26;88.46
64599;SHT31;51008;51.504;11.548;2022-11-22T23:25:33;5.26;88.58
64599;SHT31;51008;51.504;11.548;2022-11-22T23:30:34;5.36;88.47
64599;SHT31;51008;51.504;11.548;2022-11-22T23:35:35;5.40;88.41
64599;SHT31;51008;51.504;11.548;2022-11-22T23:40:36;5.35;88.39
64599;SHT31;51008;51.504;11.548;2022-11-22T23:45:44;5.18;89.12
64599;SHT31;51008;51.504;11.548;2022-11-22T23:50:45;5.01;89.92
64599;SHT31;51008;51.504;11.548;2022-11-22T23:55:46;4.78;90.34
